createdAt,value
2023-05-10T00:00:01.614Z,6.3
2023-05-10T00:05:01.074Z,5.5
2023-05-10T00:10:01.111Z,5.4
2023-05-10T00:15:02.594Z,5.4
2023-05-10T00:20:01.096Z,5.2
2023-05-10T00:25:01.150Z,5.0
2023-05-10T00:30:01.640Z,5.0
2023-05-10T00:35:01.065Z,5.4
2023-05-10T00:40:01.177Z,5.2
2023-05-10T00:45:01.627Z,4.6
2023-05-10T00:50:01.057Z,5.1
2023-05-10T00:55:01.059Z,5.0
2023-05-10T01:00:02.569Z,4.8
2023-05-10T01:05:01.073Z,5.3
2023-05-10T01:10:01.130Z,5.8
2023-05-10T01:15:01.835Z,5.6
2023-05-10T01:20:01.135Z,6.3
2023-05-10T01:25:01.143Z,6.1
2023-05-10T01:30:32.642Z,6.2
2023-05-10T01:36:01.099Z,5.5
2023-05-10T01:41:01.060Z,6.3
2023-05-10T01:46:01.048Z,6.0
2023-05-10T01:51:01.103Z,6.1
2023-05-10T01:56:01.078Z,5.8
2023-05-10T02:01:01.105Z,6.5
2023-05-10T02:06:01.132Z,5.9
2023-05-10T02:11:01.060Z,5.8
2023-05-10T02:16:01.084Z,5.6
2023-05-10T02:21:01.058Z,6.0
2023-05-10T02:26:01.104Z,5.6
2023-05-10T02:31:01.064Z,5.7
2023-05-10T02:36:01.110Z,6.4
2023-05-10T02:42:01.068Z,6.6
2023-05-10T02:52:01.131Z,7.0
2023-05-10T02:57:01.077Z,6.7
2023-05-10T03:02:01.063Z,6.0
2023-05-10T03:07:01.500Z,5.8
2023-05-10T03:12:01.203Z,6.0
2023-05-10T03:17:01.076Z,5.8
2023-05-10T03:22:01.601Z,5.7
2023-05-10T03:27:02.148Z,5.8
2023-05-10T03:32:01.113Z,5.6
2023-05-10T03:37:01.095Z,5.4
2023-05-10T03:48:01.145Z,5.8
2023-05-10T03:53:01.136Z,5.1
2023-05-10T03:58:01.057Z,5.2
2023-05-10T04:08:02.738Z,5.1
2023-05-10T04:13:01.100Z,5.2
2023-05-10T04:18:01.088Z,5.6
2023-05-10T04:23:01.117Z,6.0
2023-05-10T04:28:01.644Z,6.5
2023-05-10T04:33:01.632Z,7.0
2023-05-10T04:38:01.070Z,7.1
2023-05-10T04:43:01.079Z,7.3
2023-05-10T04:48:01.836Z,7.0
2023-05-10T04:53:01.069Z,6.6
2023-05-10T04:59:01.056Z,5.6
2023-05-10T05:04:01.913Z,5.0
2023-05-10T05:09:01.560Z,4.3
2023-05-10T05:14:02.205Z,4.2
2023-05-10T05:19:01.509Z,3.7
2023-05-10T05:24:01.579Z,4.1
2023-05-10T05:29:01.465Z,4.4
2023-05-10T05:34:01.472Z,4.9
2023-05-10T05:39:01.098Z,4.6
2023-05-10T05:44:01.472Z,4.9
2023-05-10T05:49:01.076Z,5.3
2023-05-10T05:54:01.434Z,5.9
2023-05-10T05:59:01.446Z,5.8
2023-05-10T06:04:02.348Z,5.9
2023-05-10T06:09:01.422Z,5.7
2023-05-10T06:14:01.056Z,5.0
2023-05-10T06:19:01.597Z,4.0
2023-05-10T06:24:03.005Z,4.2
2023-05-10T06:29:01.095Z,4.0
2023-05-10T06:34:01.063Z,4.3
2023-05-10T06:39:01.118Z,4.4
2023-05-10T06:44:01.464Z,4.9
2023-05-10T06:49:01.527Z,5.0
2023-05-10T06:54:01.067Z,5.1
2023-05-10T06:59:01.656Z,5.0
2023-05-10T07:09:01.113Z,4.9
2023-05-10T07:19:01.144Z,5.4
2023-05-10T07:24:01.529Z,6.2
2023-05-10T07:29:01.449Z,6.5
2023-05-10T07:34:01.161Z,6.0
2023-05-10T07:39:01.058Z,5.7
2023-05-10T07:44:01.239Z,5.0
2023-05-10T07:49:01.086Z,4.5
2023-05-10T07:54:01.120Z,4.4
2023-05-10T07:59:01.064Z,5.0
2023-05-10T08:04:01.179Z,5.4
2023-05-10T08:09:01.090Z,5.7
2023-05-10T08:14:01.088Z,5.5
2023-05-10T08:19:01.814Z,5.4
2023-05-10T08:24:01.584Z,5.2
2023-05-10T08:29:01.986Z,5.0
2023-05-10T08:44:01.079Z,4.8
2023-05-10T08:49:01.071Z,4.9
2023-05-10T08:54:02.672Z,5.4
2023-05-10T08:59:01.574Z,5.6
2023-05-10T09:04:01.094Z,5.7
2023-05-10T09:09:01.569Z,6.3
2023-05-10T09:14:01.174Z,5.6
2023-05-10T09:19:01.173Z,5.2
2023-05-10T09:24:01.061Z,5.0
2023-05-10T09:34:01.085Z,4.6
2023-05-10T09:39:01.075Z,5.3
2023-05-10T09:44:01.072Z,5.7
2023-05-10T09:49:01.146Z,5.5
2023-05-10T09:54:09.767Z,5.2
2023-05-10T10:09:01.078Z,5.2
2023-05-10T10:14:01.086Z,5.6
2023-05-10T10:19:01.107Z,5.8
2023-05-10T10:24:01.074Z,6.4
2023-05-10T10:29:13.827Z,6.6
2023-05-10T10:39:01.067Z,7.3
2023-05-10T10:49:09.377Z,7.1
2023-05-10T10:54:08.980Z,7.7
2023-05-10T10:59:01.050Z,7.8
2023-05-10T11:04:16.625Z,7.6
2023-05-10T11:09:10.093Z,8.0
2023-05-10T11:14:03.423Z,8.5
2023-05-10T11:19:01.142Z,7.6
2023-05-10T11:24:01.157Z,7.2
2023-05-10T11:29:01.061Z,7.6
2023-05-10T11:34:01.064Z,8.4
2023-05-10T11:39:01.062Z,8.3
2023-05-10T11:44:01.133Z,9.1
2023-05-10T11:49:01.050Z,10.0
2023-05-10T11:54:01.050Z,9.4
2023-05-10T11:59:01.569Z,8.3
2023-05-10T12:04:02.997Z,8.5
2023-05-10T12:14:01.080Z,8.1
2023-05-10T12:24:01.086Z,8.4
2023-05-10T12:29:01.078Z,7.6
2023-05-10T12:34:01.060Z,7.2
2023-05-10T12:39:01.122Z,6.9
2023-05-10T12:44:01.090Z,7.7
2023-05-10T12:49:08.816Z,8.1
2023-05-10T12:54:01.082Z,9.0
2023-05-10T13:05:01.153Z,9.1
2023-05-10T13:10:01.054Z,8.6
2023-05-10T13:15:02.144Z,8.2
2023-05-10T13:20:01.123Z,7.2
2023-05-10T13:25:01.110Z,7.1
2023-05-10T13:30:02.549Z,6.6
2023-05-10T13:35:01.073Z,5.8
2023-05-10T13:40:01.069Z,5.3
2023-05-10T13:45:01.488Z,5.2
2023-05-10T13:50:01.600Z,4.8
2023-05-10T13:55:01.116Z,4.5
2023-05-10T14:00:01.790Z,4.6
2023-05-10T14:05:01.143Z,4.9
2023-05-10T14:10:01.063Z,5.2
2023-05-10T14:15:01.543Z,5.3
2023-05-10T14:20:01.076Z,5.8
2023-05-10T14:25:01.154Z,5.7
2023-05-10T14:30:01.748Z,5.7
2023-05-10T14:35:01.107Z,5.5
2023-05-10T14:40:01.165Z,5.8
2023-05-10T14:45:01.636Z,5.6
2023-05-10T14:51:01.064Z,6.0
2023-05-10T14:56:01.149Z,6.1
2023-05-10T15:01:01.123Z,5.7
2023-05-10T15:06:01.064Z,5.5
2023-05-10T15:11:01.077Z,5.3
2023-05-10T15:16:01.214Z,4.6
2023-05-10T15:21:01.098Z,4.1
2023-05-10T15:31:01.067Z,4.0
2023-05-10T15:41:01.116Z,4.4
2023-05-10T15:46:01.062Z,4.2
2023-05-10T15:51:01.101Z,4.6
2023-05-10T15:56:01.434Z,4.5
2023-05-10T16:01:02.582Z,4.0
2023-05-10T16:06:01.116Z,3.6
2023-05-10T16:11:01.103Z,3.8
2023-05-10T16:16:01.134Z,3.6
2023-05-10T16:21:01.615Z,3.5
2023-05-10T16:26:01.068Z,3.8
2023-05-10T16:36:01.660Z,3.9
2023-05-10T16:41:01.550Z,3.5
2023-05-10T16:56:01.914Z,3.2
2023-05-10T17:01:01.110Z,2.6
2023-05-10T17:06:01.052Z,2.3
2023-05-10T17:11:01.998Z,1.7
2023-05-10T17:16:01.076Z,1.4
2023-05-10T17:21:01.087Z,2.1
2023-05-10T17:26:03.070Z,2.8
2023-05-10T17:31:01.435Z,3.5
2023-05-10T17:36:01.056Z,3.7
2023-05-10T17:41:01.217Z,4.1
2023-05-10T17:46:01.099Z,3.8
2023-05-10T17:51:01.065Z,3.4
2023-05-10T17:56:01.434Z,2.8
2023-05-10T18:01:01.108Z,3.1
2023-05-10T18:07:01.200Z,2.8
2023-05-10T18:12:01.048Z,2.4
2023-05-10T18:22:01.243Z,2.8
2023-05-10T18:27:01.066Z,3.3
2023-05-10T18:32:01.091Z,3.6
2023-05-10T18:37:01.078Z,4.6
2023-05-10T18:47:01.092Z,4.2
2023-05-10T18:52:01.127Z,3.9
2023-05-10T19:02:01.129Z,3.6
2023-05-10T19:07:01.073Z,3.8
2023-05-10T19:12:01.841Z,4.1
2023-05-10T19:17:01.052Z,4.5
2023-05-10T19:22:03.603Z,4.4
2023-05-10T19:27:01.954Z,4.2
2023-05-10T19:32:01.121Z,4.0
2023-05-10T19:37:01.069Z,4.2
2023-05-10T19:42:01.124Z,4.0
2023-05-10T19:47:01.078Z,4.2
2023-05-10T19:52:01.091Z,4.8
2023-05-10T19:57:01.048Z,5.0
2023-05-10T20:02:01.582Z,4.4
2023-05-10T20:07:01.282Z,4.2
2023-05-10T20:12:01.066Z,4.4
2023-05-10T20:17:01.135Z,3.8
2023-05-10T20:27:01.510Z,4.4
2023-05-10T20:32:01.654Z,4.8
2023-05-10T20:37:01.066Z,4.6
2023-05-10T20:42:01.053Z,4.4
2023-05-10T20:47:01.075Z,5.3
2023-05-10T20:52:02.495Z,5.0
2023-05-10T20:57:01.053Z,4.8
2023-05-10T21:02:01.225Z,5.2
2023-05-10T21:07:01.086Z,6.0
2023-05-10T21:12:01.064Z,6.2
2023-05-10T21:17:01.533Z,6.6
2023-05-10T21:22:01.064Z,7.4
2023-05-10T21:27:01.100Z,7.8
2023-05-10T21:32:01.107Z,7.5
2023-05-10T21:37:01.097Z,7.2
2023-05-10T21:42:01.062Z,6.5
2023-05-10T21:47:01.102Z,5.9
2023-05-10T21:52:01.585Z,5.4
2023-05-10T21:57:01.051Z,5.2
2023-05-10T22:02:01.108Z,5.3
2023-05-10T22:07:01.074Z,5.9
2023-05-10T22:12:01.645Z,5.7
2023-05-10T22:17:01.076Z,6.0
2023-05-10T22:22:02.010Z,5.9
2023-05-10T22:27:01.088Z,5.7
2023-05-10T22:37:01.057Z,6.0
2023-05-10T22:42:01.073Z,6.6
2023-05-10T22:47:01.092Z,7.3
2023-05-10T22:52:01.672Z,7.0
2023-05-10T22:57:01.064Z,8.0
2023-05-10T23:02:01.093Z,8.2
2023-05-10T23:07:01.531Z,7.6
2023-05-10T23:12:01.051Z,6.8
2023-05-10T23:17:01.082Z,6.9
2023-05-10T23:22:01.430Z,6.6
2023-05-10T23:27:01.166Z,7.2
2023-05-10T23:32:01.165Z,7.7
2023-05-10T23:37:01.636Z,8.2
2023-05-10T23:42:01.188Z,9.6
2023-05-10T23:47:01.146Z,9.7
2023-05-10T23:57:01.087Z,9.8
